sensor_id;sensor_type;location;lat;lon;timestamp;P1;P2;P0
55304;PMS7003;65692;51.378;19.824;2023-05-10T00:00:11;11.00;11.00;8.33
55304;PMS7003;65692;51.378;19.824;2023-05-10T00:02:38;7.67;6.67;5.67
55304;PMS7003;65692;51.378;19.824;2023-05-10T00:05:06;14.67;10.67;8.33
55304;PMS7003;65692;51.378;19.824;2023-05-10T00:07:33;14.33;10.33;7.67
55304;PMS7003;65692;51.378;19.824;2023-05-10T00:10:00;15.00;12.00;9.33
55304;PMS7003;65692;51.378;19.824;2023-05-10T00:12:27;8.00;8.00;7.00
55304;PMS7003;65692;51.378;19.824;2023-05-10T00:14:53;14.00;8.33;7.00
55304;PMS7003;65692;51.378;19.824;2023-05-10T00:17:20;10.33;9.33;7.00
55304;PMS7003;65692;51.378;19.824;2023-05-10T00:19:46;12.33;10.00;8.33
55304;PMS7003;65692;51.378;19.824;2023-05-10T00:22:13;11.67;10.00;9.00
55304;PMS7003;65692;51.378;19.824;2023-05-10T00:24:40;12.00;11.00;9.00
55304;PMS7003;65692;51.378;19.824;2023-05-10T00:27:06;14.33;10.67;8.00
55304;PMS7003;65692;51.378;19.824;2023-05-10T00:29:33;11.33;10.00;8.00
55304;PMS7003;65692;51.378;19.824;2023-05-10T00:32:00;8.67;7.00;6.00
55304;PMS7003;65692;51.378;19.824;2023-05-10T00:34:26;7.00;5.67;3.00
55304;PMS7003;65692;51.378;19.824;2023-05-10T00:36:53;11.67;11.00;9.33
55304;PMS7003;65692;51.378;19.824;2023-05-10T00:39:19;14.67;11.00;10.00
55304;PMS7003;65692;51.378;19.824;2023-05-10T00:41:46;6.33;5.67;5.33
55304;PMS7003;65692;51.378;19.824;2023-05-10T00:44:13;13.67;10.33;9.33
55304;PMS7003;65692;51.378;19.824;2023-05-10T00:46:39;12.33;11.00;7.00
55304;PMS7003;65692;51.378;19.824;2023-05-10T00:49:06;11.33;11.33;9.67
55304;PMS7003;65692;51.378;19.824;2023-05-10T00:51:33;10.00;9.00;7.00
55304;PMS7003;65692;51.378;19.824;2023-05-10T00:54:00;11.00;11.00;9.00
55304;PMS7003;65692;51.378;19.824;2023-05-10T00:56:26;10.00;9.00;7.00
55304;PMS7003;65692;51.378;19.824;2023-05-10T00:58:55;14.33;10.33;9.00
55304;PMS7003;65692;51.378;19.824;2023-05-10T01:01:25;9.00;7.67;6.67
55304;PMS7003;65692;51.378;19.824;2023-05-10T01:03:51;10.00;8.33;6.67
55304;PMS7003;65692;51.378;19.824;2023-05-10T01:06:18;10.00;7.00;6.00
55304;PMS7003;65692;51.378;19.824;2023-05-10T01:08:45;12.67;9.33;7.00
55304;PMS7003;65692;51.378;19.824;2023-05-10T01:11:11;8.33;8.33;6.67
55304;PMS7003;65692;51.378;19.824;2023-05-10T01:13:38;9.33;9.33;8.33
55304;PMS7003;65692;51.378;19.824;2023-05-10T01:16:06;10.00;8.33;6.33
55304;PMS7003;65692;51.378;19.824;2023-05-10T01:18:33;10.00;9.00;7.00
55304;PMS7003;65692;51.378;19.824;2023-05-10T01:21:17;13.00;10.00;9.00
55304;PMS7003;65692;51.378;19.824;2023-05-10T01:29:15;10.67;10.33;9.00
55304;PMS7003;65692;51.378;19.824;2023-05-10T01:34:34;13.00;10.67;9.00
55304;PMS7003;65692;51.378;19.824;2023-05-10T01:37:13;10.00;10.00;9.67
55304;PMS7003;65692;51.378;19.824;2023-05-10T01:39:47;15.33;12.00;8.33
55304;PMS7003;65692;51.378;19.824;2023-05-10T01:42:23;12.67;9.00;7.00
55304;PMS7003;65692;51.378;19.824;2023-05-10T01:47:58;11.00;11.00;9.00
55304;PMS7003;65692;51.378;19.824;2023-05-10T01:50:35;8.67;8.67;7.33
55304;PMS7003;65692;51.378;19.824;2023-05-10T01:53:03;14.00;11.00;9.00
55304;PMS7003;65692;51.378;19.824;2023-05-10T01:55:38;12.67;12.00;9.33
55304;PMS7003;65692;51.378;19.824;2023-05-10T01:58:27;14.33;10.67;8.00
55304;PMS7003;65692;51.378;19.824;2023-05-10T02:01:26;9.00;8.33;8.00
55304;PMS7003;65692;51.378;19.824;2023-05-10T02:03:53;12.25;10.00;8.50
55304;PMS7003;65692;51.378;19.824;2023-05-10T02:06:22;10.00;10.00;8.75
55304;PMS7003;65692;51.378;19.824;2023-05-10T02:08:53;12.75;10.00;8.50
55304;PMS7003;65692;51.378;19.824;2023-05-10T02:11:25;14.25;9.50;8.25
55304;PMS7003;65692;51.378;19.824;2023-05-10T02:14:15;13.00;11.00;8.50
55304;PMS7003;65692;51.378;19.824;2023-05-10T02:16:49;14.50;11.50;8.25
55304;PMS7003;65692;51.378;19.824;2023-05-10T02:19:17;10.50;10.00;9.00
55304;PMS7003;65692;51.378;19.824;2023-05-10T02:21:45;11.75;11.75;9.00
55304;PMS7003;65692;51.378;19.824;2023-05-10T02:24:17;16.00;13.75;12.00
55304;PMS7003;65692;51.378;19.824;2023-05-10T02:26:46;14.75;13.00;10.00
55304;PMS7003;65692;51.378;19.824;2023-05-10T02:29:15;15.50;14.00;9.75
55304;PMS7003;65692;51.378;19.824;2023-05-10T02:31:43;21.75;15.25;12.50
55304;PMS7003;65692;51.378;19.824;2023-05-10T02:34:10;13.00;12.75;9.00
55304;PMS7003;65692;51.378;19.824;2023-05-10T02:36:38;19.50;12.50;12.00
55304;PMS7003;65692;51.378;19.824;2023-05-10T02:39:08;14.75;12.25;9.00
55304;PMS7003;65692;51.378;19.824;2023-05-10T02:41:41;15.00;11.75;9.00
55304;PMS7003;65692;51.378;19.824;2023-05-10T02:44:10;19.00;15.75;11.50
55304;PMS7003;65692;51.378;19.824;2023-05-10T02:46:38;16.75;13.00;10.25
55304;PMS7003;65692;51.378;19.824;2023-05-10T02:49:05;15.00;12.75;9.50
55304;PMS7003;65692;51.378;19.824;2023-05-10T02:51:32;17.50;15.75;11.50
55304;PMS7003;65692;51.378;19.824;2023-05-10T02:54:12;19.25;15.75;12.50
55304;PMS7003;65692;51.378;19.824;2023-05-10T02:57:15;12.75;12.75;9.50
55304;PMS7003;65692;51.378;19.824;2023-05-10T02:59:51;14.25;11.50;10.25
55304;PMS7003;65692;51.378;19.824;2023-05-10T03:02:18;19.75;14.25;12.25
55304;PMS7003;65692;51.378;19.824;2023-05-10T03:04:50;16.00;12.00;10.00
55304;PMS7003;65692;51.378;19.824;2023-05-10T03:07:22;14.25;12.25;10.00
55304;PMS7003;65692;51.378;19.824;2023-05-10T03:10:11;17.00;15.75;11.00
55304;PMS7003;65692;51.378;19.824;2023-05-10T03:16:08;17.00;12.25;11.00
55304;PMS7003;65692;51.378;19.824;2023-05-10T03:19:05;15.50;12.75;11.25
55304;PMS7003;65692;51.378;19.824;2023-05-10T03:22:03;14.25;14.00;12.00
55304;PMS7003;65692;51.378;19.824;2023-05-10T03:25:02;19.50;15.00;12.00
55304;PMS7003;65692;51.378;19.824;2023-05-10T03:28:00;30.00;19.50;15.00
55304;PMS7003;65692;51.378;19.824;2023-05-10T03:30:50;23.50;20.00;16.50
55304;PMS7003;65692;51.378;19.824;2023-05-10T03:33:49;16.25;16.25;13.50
55304;PMS7003;65692;51.378;19.824;2023-05-10T03:36:33;30.25;21.00;15.00
55304;PMS7003;65692;51.378;19.824;2023-05-10T03:39:07;27.25;21.00;15.50
55304;PMS7003;65692;51.378;19.824;2023-05-10T03:41:36;18.75;16.00;13.00
55304;PMS7003;65692;51.378;19.824;2023-05-10T03:44:05;15.00;14.00;11.00
55304;PMS7003;65692;51.378;19.824;2023-05-10T03:46:35;16.25;14.00;11.50
55304;PMS7003;65692;51.378;19.824;2023-05-10T03:49:02;20.33;15.33;12.00
55304;PMS7003;65692;51.378;19.824;2023-05-10T03:51:29;21.50;18.00;14.00
55304;PMS7003;65692;51.378;19.824;2023-05-10T03:53:57;18.25;14.50;12.50
55304;PMS7003;65692;51.378;19.824;2023-05-10T03:56:26;21.25;17.00;13.00
55304;PMS7003;65692;51.378;19.824;2023-05-10T03:58:53;15.75;15.25;11.50
55304;PMS7003;65692;51.378;19.824;2023-05-10T04:01:19;24.00;17.50;13.00
55304;PMS7003;65692;51.378;19.824;2023-05-10T04:03:46;18.25;16.25;13.50
55304;PMS7003;65692;51.378;19.824;2023-05-10T04:06:13;22.00;13.67;11.00
55304;PMS7003;65692;51.378;19.824;2023-05-10T04:08:40;16.00;10.33;9.00
55304;PMS7003;65692;51.378;19.824;2023-05-10T04:11:10;16.00;11.33;8.67
55304;PMS7003;65692;51.378;19.824;2023-05-10T04:13:37;12.33;12.33;10.00
55304;PMS7003;65692;51.378;19.824;2023-05-10T04:16:04;14.33;10.67;9.33
55304;PMS7003;65692;51.378;19.824;2023-05-10T04:18:31;14.67;13.00;11.00
55304;PMS7003;65692;51.378;19.824;2023-05-10T04:20:58;13.50;11.00;9.00
55304;PMS7003;65692;51.378;19.824;2023-05-10T04:23:24;18.00;15.33;11.67
55304;PMS7003;65692;51.378;19.824;2023-05-10T04:25:51;18.75;15.50;12.25
55304;PMS7003;65692;51.378;19.824;2023-05-10T04:28:18;27.00;17.33;14.67
55304;PMS7003;65692;51.378;19.824;2023-05-10T04:30:45;15.25;12.00;11.00
55304;PMS7003;65692;51.378;19.824;2023-05-10T04:33:11;18.25;14.50;11.75
55304;PMS7003;65692;51.378;19.824;2023-05-10T04:35:38;14.25;12.75;10.25
55304;PMS7003;65692;51.378;19.824;2023-05-10T04:38:07;14.50;11.50;10.00
55304;PMS7003;65692;51.378;19.824;2023-05-10T04:40:35;7.25;6.25;4.00
55304;PMS7003;65692;51.378;19.824;2023-05-10T04:43:05;6.25;4.00;2.75
55304;PMS7003;65692;51.378;19.824;2023-05-10T04:45:32;8.75;8.75;7.00
55304;PMS7003;65692;51.378;19.824;2023-05-10T04:47:58;10.00;9.00;7.25
55304;PMS7003;65692;51.378;19.824;2023-05-10T04:50:25;8.25;8.25;7.00
55304;PMS7003;65692;51.378;19.824;2023-05-10T04:52:53;7.50;7.50;6.50
55304;PMS7003;65692;51.378;19.824;2023-05-10T04:55:19;6.50;6.50;5.25
55304;PMS7003;65692;51.378;19.824;2023-05-10T04:57:46;9.00;7.75;6.00
55304;PMS7003;65692;51.378;19.824;2023-05-10T05:00:13;10.25;9.25;5.25
55304;PMS7003;65692;51.378;19.824;2023-05-10T05:02:43;7.50;6.75;4.75
55304;PMS7003;65692;51.378;19.824;2023-05-10T05:05:12;10.00;10.00;8.75
55304;PMS7003;65692;51.378;19.824;2023-05-10T05:07:38;9.50;7.75;6.50
55304;PMS7003;65692;51.378;19.824;2023-05-10T05:10:06;9.50;7.00;6.75
55304;PMS7003;65692;51.378;19.824;2023-05-10T05:12:32;12.75;7.50;5.75
55304;PMS7003;65692;51.378;19.824;2023-05-10T05:14:59;9.00;7.75;7.00
55304;PMS7003;65692;51.378;19.824;2023-05-10T05:17:25;10.00;6.50;6.00
55304;PMS7003;65692;51.378;19.824;2023-05-10T05:19:52;2.75;1.75;0.75
55304;PMS7003;65692;51.378;19.824;2023-05-10T05:22:19;7.25;6.50;5.00
55304;PMS7003;65692;51.378;19.824;2023-05-10T05:24:45;6.75;6.75;6.00
55304;PMS7003;65692;51.378;19.824;2023-05-10T05:27:12;9.25;9.25;7.00
55304;PMS7003;65692;51.378;19.824;2023-05-10T05:29:40;9.00;7.00;7.00
55304;PMS7003;65692;51.378;19.824;2023-05-10T05:32:06;9.75;6.25;5.00
55304;PMS7003;65692;51.378;19.824;2023-05-10T05:34:34;8.75;8.75;6.75
55304;PMS7003;65692;51.378;19.824;2023-05-10T05:37:01;9.00;7.25;7.00
55304;PMS7003;65692;51.378;19.824;2023-05-10T05:39:27;11.25;7.50;6.75
55304;PMS7003;65692;51.378;19.824;2023-05-10T05:41:54;9.50;7.00;6.50
55304;PMS7003;65692;51.378;19.824;2023-05-10T05:44:21;10.50;7.00;5.75
55304;PMS7003;65692;51.378;19.824;2023-05-10T05:46:47;9.25;7.00;6.00
55304;PMS7003;65692;51.378;19.824;2023-05-10T05:49:14;9.00;7.00;6.75
55304;PMS7003;65692;51.378;19.824;2023-05-10T05:51:41;7.00;6.00;5.00
55304;PMS7003;65692;51.378;19.824;2023-05-10T05:54:07;6.25;6.25;5.50
55304;PMS7003;65692;51.378;19.824;2023-05-10T05:56:34;5.00;4.25;3.50
55304;PMS7003;65692;51.378;19.824;2023-05-10T05:59:00;8.00;8.00;6.50
55304;PMS7003;65692;51.378;19.824;2023-05-10T06:01:27;6.25;6.00;4.25
55304;PMS7003;65692;51.378;19.824;2023-05-10T06:03:54;5.75;4.75;4.00
55304;PMS7003;65692;51.378;19.824;2023-05-10T06:06:20;6.50;5.50;4.50
55304;PMS7003;65692;51.378;19.824;2023-05-10T06:08:47;6.75;5.75;4.75
55304;PMS7003;65692;51.378;19.824;2023-05-10T06:11:13;5.50;5.00;3.75
55304;PMS7003;65692;51.378;19.824;2023-05-10T06:13:40;5.00;5.00;4.00
55304;PMS7003;65692;51.378;19.824;2023-05-10T06:16:07;5.25;5.25;5.25
55304;PMS7003;65692;51.378;19.824;2023-05-10T06:18:33;5.75;5.25;4.25
55304;PMS7003;65692;51.378;19.824;2023-05-10T06:21:00;6.00;6.00;5.00
55304;PMS7003;65692;51.378;19.824;2023-05-10T06:23:27;6.50;5.75;4.50
55304;PMS7003;65692;51.378;19.824;2023-05-10T06:25:53;6.00;6.00;5.00
55304;PMS7003;65692;51.378;19.824;2023-05-10T06:28:20;6.25;5.00;4.00
55304;PMS7003;65692;51.378;19.824;2023-05-10T06:30:47;5.75;5.25;4.25
55304;PMS7003;65692;51.378;19.824;2023-05-10T06:33:17;6.50;5.25;5.00
55304;PMS7003;65692;51.378;19.824;2023-05-10T06:35:43;5.75;4.50;4.00
55304;PMS7003;65692;51.378;19.824;2023-05-10T06:38:10;1.50;1.50;1.00
55304;PMS7003;65692;51.378;19.824;2023-05-10T06:40:37;6.25;5.75;4.75
55304;PMS7003;65692;51.378;19.824;2023-05-10T06:43:07;3.50;3.50;3.00
55304;PMS7003;65692;51.378;19.824;2023-05-10T06:45:33;7.75;5.00;4.25
55304;PMS7003;65692;51.378;19.824;2023-05-10T06:48:00;6.25;6.00;5.25
55304;PMS7003;65692;51.378;19.824;2023-05-10T06:50:27;7.00;5.50;4.00
55304;PMS7003;65692;51.378;19.824;2023-05-10T06:52:53;6.50;5.25;5.00
55304;PMS7003;65692;51.378;19.824;2023-05-10T06:55:21;6.00;6.00;5.00
55304;PMS7003;65692;51.378;19.824;2023-05-10T06:57:48;6.00;6.00;5.00
55304;PMS7003;65692;51.378;19.824;2023-05-10T07:00:15;7.75;7.00;5.75
55304;PMS7003;65692;51.378;19.824;2023-05-10T07:02:42;7.50;7.50;6.00
55304;PMS7003;65692;51.378;19.824;2023-05-10T07:05:09;6.25;5.25;4.25
55304;PMS7003;65692;51.378;19.824;2023-05-10T07:07:35;6.00;5.00;4.00
55304;PMS7003;65692;51.378;19.824;2023-05-10T07:10:02;5.50;5.50;4.25
55304;PMS7003;65692;51.378;19.824;2023-05-10T07:12:29;4.75;4.75;4.50
55304;PMS7003;65692;51.378;19.824;2023-05-10T07:14:55;7.00;7.00;5.25
55304;PMS7003;65692;51.378;19.824;2023-05-10T07:17:22;5.00;5.00;4.75
55304;PMS7003;65692;51.378;19.824;2023-05-10T07:19:49;6.75;6.00;5.00
55304;PMS7003;65692;51.378;19.824;2023-05-10T07:22:16;5.25;5.25;5.00
55304;PMS7003;65692;51.378;19.824;2023-05-10T07:24:43;5.00;5.00;4.75
55304;PMS7003;65692;51.378;19.824;2023-05-10T07:27:09;7.50;7.25;6.00
55304;PMS7003;65692;51.378;19.824;2023-05-10T07:29:36;6.00;6.00;5.25
55304;PMS7003;65692;51.378;19.824;2023-05-10T07:32:03;5.75;5.75;5.00
55304;PMS7003;65692;51.378;19.824;2023-05-10T07:34:30;9.00;8.00;7.00
55304;PMS7003;65692;51.378;19.824;2023-05-10T07:36:58;10.00;6.25;5.00
55304;PMS7003;65692;51.378;19.824;2023-05-10T07:39:25;4.75;4.75;3.75
55304;PMS7003;65692;51.378;19.824;2023-05-10T07:41:54;7.75;5.00;4.00
55304;PMS7003;65692;51.378;19.824;2023-05-10T07:44:20;6.50;6.50;4.50
55304;PMS7003;65692;51.378;19.824;2023-05-10T07:46:47;5.00;4.75;4.00
55304;PMS7003;65692;51.378;19.824;2023-05-10T07:49:14;5.25;4.00;4.00
55304;PMS7003;65692;51.378;19.824;2023-05-10T07:51:41;4.25;4.25;4.00
55304;PMS7003;65692;51.378;19.824;2023-05-10T07:54:09;5.00;5.00;3.75
55304;PMS7003;65692;51.378;19.824;2023-05-10T07:56:35;5.50;4.75;4.25
55304;PMS7003;65692;51.378;19.824;2023-05-10T07:59:02;6.00;5.00;4.75
55304;PMS7003;65692;51.378;19.824;2023-05-10T08:01:34;5.50;4.25;3.00
55304;PMS7003;65692;51.378;19.824;2023-05-10T08:04:01;4.00;4.00;4.00
55304;PMS7003;65692;51.378;19.824;2023-05-10T08:06:28;6.75;5.25;4.75
55304;PMS7003;65692;51.378;19.824;2023-05-10T08:08:56;5.00;5.00;4.00
55304;PMS7003;65692;51.378;19.824;2023-05-10T08:11:23;6.00;4.00;4.00
55304;PMS7003;65692;51.378;19.824;2023-05-10T08:13:49;6.00;6.00;5.00
55304;PMS7003;65692;51.378;19.824;2023-05-10T08:16:16;4.75;4.75;3.75
55304;PMS7003;65692;51.378;19.824;2023-05-10T08:18:43;4.75;4.75;4.50
55304;PMS7003;65692;51.378;19.824;2023-05-10T08:21:11;3.00;3.00;2.75
55304;PMS7003;65692;51.378;19.824;2023-05-10T08:23:37;5.50;5.50;4.75
55304;PMS7003;65692;51.378;19.824;2023-05-10T08:26:04;5.00;3.75;3.25
55304;PMS7003;65692;51.378;19.824;2023-05-10T08:28:30;7.25;6.00;5.00
55304;PMS7003;65692;51.378;19.824;2023-05-10T08:30:57;6.00;6.00;5.00
55304;PMS7003;65692;51.378;19.824;2023-05-10T08:33:23;6.50;5.00;4.75
55304;PMS7003;65692;51.378;19.824;2023-05-10T08:35:50;7.00;5.00;4.75
55304;PMS7003;65692;51.378;19.824;2023-05-10T08:38:17;6.50;4.75;4.75
55304;PMS7003;65692;51.378;19.824;2023-05-10T08:40:44;8.25;6.50;5.50
55304;PMS7003;65692;51.378;19.824;2023-05-10T08:43:12;7.00;5.75;4.00
55304;PMS7003;65692;51.378;19.824;2023-05-10T08:45:40;6.50;5.00;4.75
55304;PMS7003;65692;51.378;19.824;2023-05-10T08:48:08;5.00;3.75;3.50
55304;PMS7003;65692;51.378;19.824;2023-05-10T08:50:41;5.50;4.00;4.00
55304;PMS7003;65692;51.378;19.824;2023-05-10T08:53:12;2.75;2.00;2.00
55304;PMS7003;65692;51.378;19.824;2023-05-10T08:55:39;4.75;4.50;4.00
55304;PMS7003;65692;51.378;19.824;2023-05-10T08:58:06;5.25;5.25;4.25
55304;PMS7003;65692;51.378;19.824;2023-05-10T09:00:33;4.75;4.75;4.50
55304;PMS7003;65692;51.378;19.824;2023-05-10T09:03:00;1.25;1.00;1.00
55304;PMS7003;65692;51.378;19.824;2023-05-10T09:05:27;5.50;4.50;4.00
55304;PMS7003;65692;51.378;19.824;2023-05-10T09:07:54;6.00;5.75;4.75
55304;PMS7003;65692;51.378;19.824;2023-05-10T09:10:21;5.00;5.00;5.00
55304;PMS7003;65692;51.378;19.824;2023-05-10T09:12:48;5.00;4.25;4.00
55304;PMS7003;65692;51.378;19.824;2023-05-10T09:15:15;4.50;4.00;3.50
55304;PMS7003;65692;51.378;19.824;2023-05-10T09:17:42;5.00;5.00;4.00
55304;PMS7003;65692;51.378;19.824;2023-05-10T09:20:10;4.00;4.00;2.75
55304;PMS7003;65692;51.378;19.824;2023-05-10T09:22:37;6.25;5.00;4.75
55304;PMS7003;65692;51.378;19.824;2023-05-10T09:25:05;5.00;4.00;3.75
55304;PMS7003;65692;51.378;19.824;2023-05-10T09:27:31;6.50;5.50;4.50
55304;PMS7003;65692;51.378;19.824;2023-05-10T09:29:58;4.75;4.00;3.00
55304;PMS7003;65692;51.378;19.824;2023-05-10T09:32:40;5.00;4.00;3.00
55304;PMS7003;65692;51.378;19.824;2023-05-10T09:35:14;5.00;5.00;4.00
55304;PMS7003;65692;51.378;19.824;2023-05-10T09:37:43;4.75;4.25;4.25
55304;PMS7003;65692;51.378;19.824;2023-05-10T09:40:25;4.25;4.25;3.75
55304;PMS7003;65692;51.378;19.824;2023-05-10T09:45:22;5.00;5.00;4.00
55304;PMS7003;65692;51.378;19.824;2023-05-10T09:47:49;3.75;3.75;2.75
55304;PMS7003;65692;51.378;19.824;2023-05-10T09:50:16;5.75;4.00;3.50
55304;PMS7003;65692;51.378;19.824;2023-05-10T09:55:13;6.25;4.50;3.75
55304;PMS7003;65692;51.378;19.824;2023-05-10T09:57:40;10.75;8.50;7.00
55304;PMS7003;65692;51.378;19.824;2023-05-10T10:00:07;5.75;5.75;5.00
55304;PMS7003;65692;51.378;19.824;2023-05-10T10:02:35;14.00;11.50;9.25
55304;PMS7003;65692;51.378;19.824;2023-05-10T10:05:02;4.25;4.25;3.25
55304;PMS7003;65692;51.378;19.824;2023-05-10T10:07:32;6.50;5.25;4.25
55304;PMS7003;65692;51.378;19.824;2023-05-10T10:09:59;18.25;16.00;11.25
55304;PMS7003;65692;51.378;19.824;2023-05-10T10:12:26;7.25;7.25;5.25
55304;PMS7003;65692;51.378;19.824;2023-05-10T10:14:52;10.00;8.75;7.25
55304;PMS7003;65692;51.378;19.824;2023-05-10T10:17:19;10.50;9.00;8.00
55304;PMS7003;65692;51.378;19.824;2023-05-10T10:19:46;4.75;4.75;4.50
55304;PMS7003;65692;51.378;19.824;2023-05-10T10:22:14;7.25;6.00;6.00
55304;PMS7003;65692;51.378;19.824;2023-05-10T10:24:41;3.50;3.50;3.00
55304;PMS7003;65692;51.378;19.824;2023-05-10T10:29:47;5.25;5.00;4.00
55304;PMS7003;65692;51.378;19.824;2023-05-10T10:32:22;7.50;6.00;5.00
55304;PMS7003;65692;51.378;19.824;2023-05-10T10:34:53;5.25;5.25;4.75
55304;PMS7003;65692;51.378;19.824;2023-05-10T10:37:20;4.75;3.50;3.00
55304;PMS7003;65692;51.378;19.824;2023-05-10T10:39:50;4.00;4.00;4.00
55304;PMS7003;65692;51.378;19.824;2023-05-10T10:42:43;4.00;4.00;3.25
55304;PMS7003;65692;51.378;19.824;2023-05-10T10:45:13;3.75;3.75;3.00
55304;PMS7003;65692;51.378;19.824;2023-05-10T10:47:40;6.00;5.25;4.00
55304;PMS7003;65692;51.378;19.824;2023-05-10T10:50:06;4.00;4.00;3.75
55304;PMS7003;65692;51.378;19.824;2023-05-10T10:52:37;5.75;3.50;3.00
55304;PMS7003;65692;51.378;19.824;2023-05-10T10:57:33;5.00;5.00;4.00
55304;PMS7003;65692;51.378;19.824;2023-05-10T11:02:48;5.25;3.00;3.00
55304;PMS7003;65692;51.378;19.824;2023-05-10T11:05:33;5.75;5.75;4.00
55304;PMS7003;65692;51.378;19.824;2023-05-10T11:08:09;9.50;8.50;7.25
55304;PMS7003;65692;51.378;19.824;2023-05-10T11:10:35;7.00;6.00;5.00
55304;PMS7003;65692;51.378;19.824;2023-05-10T11:13:03;5.75;4.75;4.50
55304;PMS7003;65692;51.378;19.824;2023-05-10T11:18:00;5.25;4.75;3.75
55304;PMS7003;65692;51.378;19.824;2023-05-10T11:20:42;4.25;3.75;2.75
55304;PMS7003;65692;51.378;19.824;2023-05-10T11:23:12;4.75;4.75;4.25
55304;PMS7003;65692;51.378;19.824;2023-05-10T11:25:42;3.50;3.50;3.25
55304;PMS7003;65692;51.378;19.824;2023-05-10T11:28:10;5.50;5.50;5.00
55304;PMS7003;65692;51.378;19.824;2023-05-10T11:30:40;4.75;4.75;3.75
55304;PMS7003;65692;51.378;19.824;2023-05-10T11:33:07;6.00;5.50;4.75
55304;PMS7003;65692;51.378;19.824;2023-05-10T11:35:38;5.00;5.00;4.75
55304;PMS7003;65692;51.378;19.824;2023-05-10T11:38:09;5.75;5.00;4.00
55304;PMS7003;65692;51.378;19.824;2023-05-10T11:40:36;5.75;5.50;4.75
55304;PMS7003;65692;51.378;19.824;2023-05-10T11:43:03;4.00;4.00;3.00
55304;PMS7003;65692;51.378;19.824;2023-05-10T11:45:32;5.00;5.00;4.25
55304;PMS7003;65692;51.378;19.824;2023-05-10T11:47:59;3.75;3.75;3.25
55304;PMS7003;65692;51.378;19.824;2023-05-10T11:50:27;4.75;4.75;3.75
55304;PMS7003;65692;51.378;19.824;2023-05-10T11:52:57;4.25;3.75;3.50
55304;PMS7003;65692;51.378;19.824;2023-05-10T11:55:24;6.00;6.00;5.75
55304;PMS7003;65692;51.378;19.824;2023-05-10T11:57:52;4.25;4.25;3.50
55304;PMS7003;65692;51.378;19.824;2023-05-10T12:00:20;5.25;5.00;4.50
55304;PMS7003;65692;51.378;19.824;2023-05-10T12:02:47;5.50;5.50;5.00
55304;PMS7003;65692;51.378;19.824;2023-05-10T12:05:14;9.00;7.00;6.00
55304;PMS7003;65692;51.378;19.824;2023-05-10T12:07:41;9.00;7.75;6.75
55304;PMS7003;65692;51.378;19.824;2023-05-10T12:10:08;5.00;5.00;4.25
55304;PMS7003;65692;51.378;19.824;2023-05-10T12:12:39;6.50;6.50;5.75
55304;PMS7003;65692;51.378;19.824;2023-05-10T12:15:11;7.25;5.75;4.25
55304;PMS7003;65692;51.378;19.824;2023-05-10T12:17:38;6.50;5.25;4.75
55304;PMS7003;65692;51.378;19.824;2023-05-10T12:22:46;5.75;4.25;3.50
55304;PMS7003;65692;51.378;19.824;2023-05-10T12:25:12;7.25;6.75;5.50
55304;PMS7003;65692;51.378;19.824;2023-05-10T12:27:39;6.75;6.00;4.75
55304;PMS7003;65692;51.378;19.824;2023-05-10T12:30:06;5.00;5.00;4.00
55304;PMS7003;65692;51.378;19.824;2023-05-10T12:32:40;5.25;5.25;5.00
55304;PMS7003;65692;51.378;19.824;2023-05-10T12:35:07;5.25;5.25;4.75
55304;PMS7003;65692;51.378;19.824;2023-05-10T12:37:34;6.00;6.00;5.00
55304;PMS7003;65692;51.378;19.824;2023-05-10T12:40:06;6.00;6.00;5.50
55304;PMS7003;65692;51.378;19.824;2023-05-10T12:42:32;4.50;4.50;4.00
55304;PMS7003;65692;51.378;19.824;2023-05-10T12:44:59;4.50;4.50;4.25
55304;PMS7003;65692;51.378;19.824;2023-05-10T12:47:25;6.00;4.25;4.00
55304;PMS7003;65692;51.378;19.824;2023-05-10T12:49:52;6.00;6.00;5.00
55304;PMS7003;65692;51.378;19.824;2023-05-10T12:52:18;6.75;5.50;4.75
55304;PMS7003;65692;51.378;19.824;2023-05-10T12:54:45;5.25;5.25;4.25
55304;PMS7003;65692;51.378;19.824;2023-05-10T12:57:12;10.50;10.00;8.00
55304;PMS7003;65692;51.378;19.824;2023-05-10T12:59:39;9.00;8.00;6.25
55304;PMS7003;65692;51.378;19.824;2023-05-10T13:02:06;7.25;4.75;4.25
55304;PMS7003;65692;51.378;19.824;2023-05-10T13:04:32;5.00;5.00;4.00
55304;PMS7003;65692;51.378;19.824;2023-05-10T13:06:59;5.75;5.25;4.50
55304;PMS7003;65692;51.378;19.824;2023-05-10T13:09:26;15.25;15.25;11.00
55304;PMS7003;65692;51.378;19.824;2023-05-10T13:11:53;16.00;9.50;7.75
55304;PMS7003;65692;51.378;19.824;2023-05-10T13:14:20;6.75;5.25;4.00
55304;PMS7003;65692;51.378;19.824;2023-05-10T13:16:47;5.00;5.00;5.00
55304;PMS7003;65692;51.378;19.824;2023-05-10T13:19:14;7.25;6.00;5.00
55304;PMS7003;65692;51.378;19.824;2023-05-10T13:21:40;7.75;7.75;7.00
55304;PMS7003;65692;51.378;19.824;2023-05-10T13:24:07;3.75;3.75;3.75
55304;PMS7003;65692;51.378;19.824;2023-05-10T13:26:34;11.50;9.25;8.25
55304;PMS7003;65692;51.378;19.824;2023-05-10T13:29:01;3.75;3.75;3.50
55304;PMS7003;65692;51.378;19.824;2023-05-10T13:31:27;7.25;6.00;5.50
55304;PMS7003;65692;51.378;19.824;2023-05-10T13:33:54;5.00;5.00;4.00
55304;PMS7003;65692;51.378;19.824;2023-05-10T13:36:21;6.50;5.50;5.00
55304;PMS7003;65692;51.378;19.824;2023-05-10T13:38:49;4.75;4.00;3.75
55304;PMS7003;65692;51.378;19.824;2023-05-10T13:41:15;6.00;4.00;3.75
55304;PMS7003;65692;51.378;19.824;2023-05-10T13:43:42;3.75;3.75;2.75
55304;PMS7003;65692;51.378;19.824;2023-05-10T13:46:08;10.00;6.75;6.00
55304;PMS7003;65692;51.378;19.824;2023-05-10T13:48:35;5.00;5.00;4.75
55304;PMS7003;65692;51.378;19.824;2023-05-10T13:51:04;6.75;6.00;5.00
55304;PMS7003;65692;51.378;19.824;2023-05-10T13:53:31;5.00;5.00;4.25
55304;PMS7003;65692;51.378;19.824;2023-05-10T13:55:57;5.75;5.75;5.25
55304;PMS7003;65692;51.378;19.824;2023-05-10T13:58:24;8.25;6.00;5.50
55304;PMS7003;65692;51.378;19.824;2023-05-10T14:00:51;3.75;3.50;3.25
55304;PMS7003;65692;51.378;19.824;2023-05-10T14:03:17;5.25;4.50;4.00
55304;PMS7003;65692;51.378;19.824;2023-05-10T14:05:44;5.00;5.00;4.00
55304;PMS7003;65692;51.378;19.824;2023-05-10T14:08:11;5.00;5.00;5.00
55304;PMS7003;65692;51.378;19.824;2023-05-10T14:10:39;6.00;5.00;4.75
55304;PMS7003;65692;51.378;19.824;2023-05-10T14:13:06;4.25;4.25;4.00
55304;PMS7003;65692;51.378;19.824;2023-05-10T14:15:32;4.00;4.00;4.00
55304;PMS7003;65692;51.378;19.824;2023-05-10T14:17:59;6.00;6.00;4.75
55304;PMS7003;65692;51.378;19.824;2023-05-10T14:20:25;7.25;6.00;4.75
55304;PMS7003;65692;51.378;19.824;2023-05-10T14:22:52;5.25;5.25;4.50
55304;PMS7003;65692;51.378;19.824;2023-05-10T14:25:18;5.00;5.00;4.75
55304;PMS7003;65692;51.378;19.824;2023-05-10T14:27:45;4.50;4.50;4.25
55304;PMS7003;65692;51.378;19.824;2023-05-10T14:30:12;5.00;5.00;4.00
55304;PMS7003;65692;51.378;19.824;2023-05-10T14:32:39;6.50;6.50;5.50
55304;PMS7003;65692;51.378;19.824;2023-05-10T14:35:05;5.25;5.25;4.00
55304;PMS7003;65692;51.378;19.824;2023-05-10T14:37:32;5.00;5.00;4.25
55304;PMS7003;65692;51.378;19.824;2023-05-10T14:39:59;7.00;5.25;4.75
55304;PMS7003;65692;51.378;19.824;2023-05-10T14:42:26;6.00;6.00;4.75